sensor_id;sensor_type;location;lat;lon;timestamp;temperature;humidity
55203;DHT22;41077;52.956;6.796;2023-04-03T00:00:47;3.30;99.90
55203;DHT22;41077;52.956;6.796;2023-04-03T00:03:14;3.20;99.90
55203;DHT22;41077;52.956;6.796;2023-04-03T00:05:40;3.20;99.90
55203;DHT22;41077;52.956;6.796;2023-04-03T00:08:07;3.20;99.90
55203;DHT22;41077;52.956;6.796;2023-04-03T00:10:35;3.10;99.90
55203;DHT22;41077;52.956;6.796;2023-04-03T00:13:01;3.10;99.90
55203;DHT22;41077;52.956;6.796;2023-04-03T00:15:27;3.10;99.90
55203;DHT22;41077;52.956;6.796;2023-04-03T00:17:52;3.00;99.90
55203;DHT22;41077;52.956;6.796;2023-04-03T00:20:18;3.00;99.90
55203;DHT22;41077;52.956;6.796;2023-04-03T00:22:44;2.90;99.90
55203;DHT22;41077;52.956;6.796;2023-04-03T00:25:09;2.90;99.90
55203;DHT22;41077;52.956;6.796;2023-04-03T00:27:38;2.90;99.90
55203;DHT22;41077;52.956;6.796;2023-04-03T00:30:05;2.80;99.90
55203;DHT22;41077;52.956;6.796;2023-04-03T00:32:31;2.80;99.90
55203;DHT22;41077;52.956;6.796;2023-04-03T00:34:56;2.80;99.90
55203;DHT22;41077;52.956;6.796;2023-04-03T00:37:22;2.70;99.90
55203;DHT22;41077;52.956;6.796;2023-04-03T00:39:47;2.70;99.90
55203;DHT22;41077;52.956;6.796;2023-04-03T00:42:13;2.70;99.90
55203;DHT22;41077;52.956;6.796;2023-04-03T00:47:05;2.60;99.90
55203;DHT22;41077;52.956;6.796;2023-04-03T00:49:31;2.60;99.90
55203;DHT22;41077;52.956;6.796;2023-04-03T00:51:57;2.50;99.90
55203;DHT22;41077;52.956;6.796;2023-04-03T00:54:23;2.50;99.90
55203;DHT22;41077;52.956;6.796;2023-04-03T00:56:50;2.50;99.90
55203;DHT22;41077;52.956;6.796;2023-04-03T00:59:21;2.50;99.90
55203;DHT22;41077;52.956;6.796;2023-04-03T01:01:48;2.40;99.90
55203;DHT22;41077;52.956;6.796;2023-04-03T01:04:27;2.40;99.90
55203;DHT22;41077;52.956;6.796;2023-04-03T01:06:53;2.40;99.90
55203;DHT22;41077;52.956;6.796;2023-04-03T01:09:21;2.30;99.90
55203;DHT22;41077;52.956;6.796;2023-04-03T01:11:47;2.30;99.90
55203;DHT22;41077;52.956;6.796;2023-04-03T01:14:12;2.30;99.90
55203;DHT22;41077;52.956;6.796;2023-04-03T01:16:38;2.30;99.90
55203;DHT22;41077;52.956;6.796;2023-04-03T01:19:06;2.20;99.90
55203;DHT22;41077;52.956;6.796;2023-04-03T01:24:34;2.20;99.90
55203;DHT22;41077;52.956;6.796;2023-04-03T01:27:00;2.20;99.90
55203;DHT22;41077;52.956;6.796;2023-04-03T01:29:26;2.10;99.90
55203;DHT22;41077;52.956;6.796;2023-04-03T01:31:53;2.10;99.90
55203;DHT22;41077;52.956;6.796;2023-04-03T01:34:19;2.10;99.90
55203;DHT22;41077;52.956;6.796;2023-04-03T01:36:45;2.10;99.90
55203;DHT22;41077;52.956;6.796;2023-04-03T01:39:11;2.10;99.90
55203;DHT22;41077;52.956;6.796;2023-04-03T01:41:36;2.10;99.90
55203;DHT22;41077;52.956;6.796;2023-04-03T01:44:02;2.00;99.90
55203;DHT22;41077;52.956;6.796;2023-04-03T01:46:29;2.00;99.90
55203;DHT22;41077;52.956;6.796;2023-04-03T01:48:56;2.00;99.90
55203;DHT22;41077;52.956;6.796;2023-04-03T01:51:22;2.00;99.90
55203;DHT22;41077;52.956;6.796;2023-04-03T01:53:47;2.00;99.90
55203;DHT22;41077;52.956;6.796;2023-04-03T01:56:13;2.00;99.90
55203;DHT22;41077;52.956;6.796;2023-04-03T01:58:38;1.90;99.90
55203;DHT22;41077;52.956;6.796;2023-04-03T02:01:04;1.90;99.90
55203;DHT22;41077;52.956;6.796;2023-04-03T02:03:29;1.90;99.90
55203;DHT22;41077;52.956;6.796;2023-04-03T02:05:56;1.90;99.90
55203;DHT22;41077;52.956;6.796;2023-04-03T02:08:21;1.80;99.90
55203;DHT22;41077;52.956;6.796;2023-04-03T02:10:47;1.80;99.90
55203;DHT22;41077;52.956;6.796;2023-04-03T02:13:14;1.80;99.90
55203;DHT22;41077;52.956;6.796;2023-04-03T02:15:39;1.70;99.90
55203;DHT22;41077;52.956;6.796;2023-04-03T02:18:06;1.70;99.90
55203;DHT22;41077;52.956;6.796;2023-04-03T02:20:31;1.70;99.90
55203;DHT22;41077;52.956;6.796;2023-04-03T02:22:58;1.60;99.90
55203;DHT22;41077;52.956;6.796;2023-04-03T02:25:24;1.60;99.90
55203;DHT22;41077;52.956;6.796;2023-04-03T02:27:49;1.50;99.90
55203;DHT22;41077;52.956;6.796;2023-04-03T02:30:15;1.40;99.90
55203;DHT22;41077;52.956;6.796;2023-04-03T02:32:41;1.40;99.90
55203;DHT22;41077;52.956;6.796;2023-04-03T02:35:07;1.30;99.90
55203;DHT22;41077;52.956;6.796;2023-04-03T02:37:33;1.30;99.90
55203;DHT22;41077;52.956;6.796;2023-04-03T02:39:59;1.30;99.90
55203;DHT22;41077;52.956;6.796;2023-04-03T02:42:24;1.20;99.90
55203;DHT22;41077;52.956;6.796;2023-04-03T02:44:50;1.10;99.90
55203;DHT22;41077;52.956;6.796;2023-04-03T02:47:16;1.00;99.90
55203;DHT22;41077;52.956;6.796;2023-04-03T02:49:41;1.00;99.90
55203;DHT22;41077;52.956;6.796;2023-04-03T02:52:10;1.00;99.90
55203;DHT22;41077;52.956;6.796;2023-04-03T02:54:35;0.90;99.90
55203;DHT22;41077;52.956;6.796;2023-04-03T02:57:01;0.80;99.90
55203;DHT22;41077;52.956;6.796;2023-04-03T02:59:27;0.80;99.90
55203;DHT22;41077;52.956;6.796;2023-04-03T03:01:52;0.70;99.90
55203;DHT22;41077;52.956;6.796;2023-04-03T03:04:18;0.70;99.90
55203;DHT22;41077;52.956;6.796;2023-04-03T03:06:44;0.60;99.90
55203;DHT22;41077;52.956;6.796;2023-04-03T03:09:09;0.60;99.90
55203;DHT22;41077;52.956;6.796;2023-04-03T03:11:35;0.60;99.90
55203;DHT22;41077;52.956;6.796;2023-04-03T03:14:00;0.50;99.90
55203;DHT22;41077;52.956;6.796;2023-04-03T03:16:26;0.50;99.90
55203;DHT22;41077;52.956;6.796;2023-04-03T03:18:52;0.50;99.90
55203;DHT22;41077;52.956;6.796;2023-04-03T03:21:17;0.50;99.90
55203;DHT22;41077;52.956;6.796;2023-04-03T03:23:43;0.50;99.90
55203;DHT22;41077;52.956;6.796;2023-04-03T03:26:09;0.50;99.90
55203;DHT22;41077;52.956;6.796;2023-04-03T03:28:35;0.40;99.90
55203;DHT22;41077;52.956;6.796;2023-04-03T03:31:01;0.40;99.90
55203;DHT22;41077;52.956;6.796;2023-04-03T03:33:27;0.50;99.90
55203;DHT22;41077;52.956;6.796;2023-04-03T03:35:53;0.50;99.90
55203;DHT22;41077;52.956;6.796;2023-04-03T03:38:19;0.50;99.90
55203;DHT22;41077;52.956;6.796;2023-04-03T03:40:46;0.50;99.90
55203;DHT22;41077;52.956;6.796;2023-04-03T03:43:12;0.50;99.90
55203;DHT22;41077;52.956;6.796;2023-04-03T03:45:37;0.60;99.90
55203;DHT22;41077;52.956;6.796;2023-04-03T03:48:03;0.50;99.90
55203;DHT22;41077;52.956;6.796;2023-04-03T03:50:29;0.60;99.90
55203;DHT22;41077;52.956;6.796;2023-04-03T03:52:54;0.60;99.90
55203;DHT22;41077;52.956;6.796;2023-04-03T03:55:20;0.60;99.90
55203;DHT22;41077;52.956;6.796;2023-04-03T03:57:46;0.60;99.90
55203;DHT22;41077;52.956;6.796;2023-04-03T04:00:11;0.60;99.90
55203;DHT22;41077;52.956;6.796;2023-04-03T04:02:37;0.60;99.90
55203;DHT22;41077;52.956;6.796;2023-04-03T04:05:03;0.60;99.90
55203;DHT22;41077;52.956;6.796;2023-04-03T04:07:29;0.60;99.90
55203;DHT22;41077;52.956;6.796;2023-04-03T04:09:54;0.60;99.90
55203;DHT22;41077;52.956;6.796;2023-04-03T04:12:20;0.70;99.90
55203;DHT22;41077;52.956;6.796;2023-04-03T04:14:46;0.70;99.90
55203;DHT22;41077;52.956;6.796;2023-04-03T04:17:15;0.60;99.90
55203;DHT22;41077;52.956;6.796;2023-04-03T04:19:40;0.60;99.90
55203;DHT22;41077;52.956;6.796;2023-04-03T04:22:06;0.60;99.90
55203;DHT22;41077;52.956;6.796;2023-04-03T04:24:31;0.60;99.90
55203;DHT22;41077;52.956;6.796;2023-04-03T04:26:57;0.50;99.90
55203;DHT22;41077;52.956;6.796;2023-04-03T04:29:23;0.50;99.90
55203;DHT22;41077;52.956;6.796;2023-04-03T04:31:48;0.50;99.90
55203;DHT22;41077;52.956;6.796;2023-04-03T04:34:14;0.50;99.90
55203;DHT22;41077;52.956;6.796;2023-04-03T04:36:40;0.50;99.90
55203;DHT22;41077;52.956;6.796;2023-04-03T04:39:06;0.50;99.90
55203;DHT22;41077;52.956;6.796;2023-04-03T04:41:31;0.50;99.90
55203;DHT22;41077;52.956;6.796;2023-04-03T04:43:57;0.40;99.90
55203;DHT22;41077;52.956;6.796;2023-04-03T04:46:22;0.40;99.90
55203;DHT22;41077;52.956;6.796;2023-04-03T04:48:48;0.30;99.90
55203;DHT22;41077;52.956;6.796;2023-04-03T04:51:14;0.30;99.90
55203;DHT22;41077;52.956;6.796;2023-04-03T04:53:40;0.30;99.90
55203;DHT22;41077;52.956;6.796;2023-04-03T04:56:06;0.30;99.90
55203;DHT22;41077;52.956;6.796;2023-04-03T04:58:31;0.30;99.90
55203;DHT22;41077;52.956;6.796;2023-04-03T05:01:00;0.30;99.90
55203;DHT22;41077;52.956;6.796;2023-04-03T05:03:26;0.30;99.90
55203;DHT22;41077;52.956;6.796;2023-04-03T05:05:52;0.30;99.90
55203;DHT22;41077;52.956;6.796;2023-04-03T05:08:17;0.30;99.90
55203;DHT22;41077;52.956;6.796;2023-04-03T05:10:44;0.30;99.90
55203;DHT22;41077;52.956;6.796;2023-04-03T05:13:10;0.40;99.90
55203;DHT22;41077;52.956;6.796;2023-04-03T05:15:35;0.30;99.90
55203;DHT22;41077;52.956;6.796;2023-04-03T05:18:01;0.30;99.90
55203;DHT22;41077;52.956;6.796;2023-04-03T05:20:27;0.30;99.90
55203;DHT22;41077;52.956;6.796;2023-04-03T05:22:52;0.30;99.90
55203;DHT22;41077;52.956;6.796;2023-04-03T05:25:18;0.30;99.90
55203;DHT22;41077;52.956;6.796;2023-04-03T05:27:43;0.40;99.90
55203;DHT22;41077;52.956;6.796;2023-04-03T05:30:09;0.40;99.90
55203;DHT22;41077;52.956;6.796;2023-04-03T05:32:35;0.40;99.90
55203;DHT22;41077;52.956;6.796;2023-04-03T05:35:00;0.40;99.90
55203;DHT22;41077;52.956;6.796;2023-04-03T05:37:26;0.40;99.90
55203;DHT22;41077;52.956;6.796;2023-04-03T05:39:52;0.40;99.90
55203;DHT22;41077;52.956;6.796;2023-04-03T05:42:18;0.40;99.90
55203;DHT22;41077;52.956;6.796;2023-04-03T05:44:43;0.40;99.90
55203;DHT22;41077;52.956;6.796;2023-04-03T05:47:11;0.50;99.90
55203;DHT22;41077;52.956;6.796;2023-04-03T05:49:36;0.50;99.90
55203;DHT22;41077;52.956;6.796;2023-04-03T05:52:06;0.60;99.90
55203;DHT22;41077;52.956;6.796;2023-04-03T05:54:34;0.60;99.90
55203;DHT22;41077;52.956;6.796;2023-04-03T05:57:00;0.60;99.90
55203;DHT22;41077;52.956;6.796;2023-04-03T05:59:26;0.70;99.90
55203;DHT22;41077;52.956;6.796;2023-04-03T06:01:51;0.70;99.90
55203;DHT22;41077;52.956;6.796;2023-04-03T06:04:17;0.80;99.90
55203;DHT22;41077;52.956;6.796;2023-04-03T06:06:51;0.80;99.90
55203;DHT22;41077;52.956;6.796;2023-04-03T06:09:17;0.80;99.90
55203;DHT22;41077;52.956;6.796;2023-04-03T06:11:43;0.90;99.90
55203;DHT22;41077;52.956;6.796;2023-04-03T06:14:09;0.90;99.90
55203;DHT22;41077;52.956;6.796;2023-04-03T06:16:35;1.00;99.90
55203;DHT22;41077;52.956;6.796;2023-04-03T06:19:01;1.00;99.90
55203;DHT22;41077;52.956;6.796;2023-04-03T06:21:26;1.10;99.90
55203;DHT22;41077;52.956;6.796;2023-04-03T06:23:52;1.10;99.90
55203;DHT22;41077;52.956;6.796;2023-04-03T06:26:17;1.20;99.90
55203;DHT22;41077;52.956;6.796;2023-04-03T06:28:43;1.20;99.90
55203;DHT22;41077;52.956;6.796;2023-04-03T06:31:08;1.30;99.90
55203;DHT22;41077;52.956;6.796;2023-04-03T06:33:34;1.30;99.90
55203;DHT22;41077;52.956;6.796;2023-04-03T06:36:02;1.40;99.90
55203;DHT22;41077;52.956;6.796;2023-04-03T06:38:28;1.40;99.90
55203;DHT22;41077;52.956;6.796;2023-04-03T06:40:54;1.50;99.90
55203;DHT22;41077;52.956;6.796;2023-04-03T06:43:21;1.50;99.90
55203;DHT22;41077;52.956;6.796;2023-04-03T06:45:47;1.60;99.90
55203;DHT22;41077;52.956;6.796;2023-04-03T06:48:12;1.60;99.90
55203;DHT22;41077;52.956;6.796;2023-04-03T06:50:38;1.70;99.90
55203;DHT22;41077;52.956;6.796;2023-04-03T06:53:04;1.80;99.90
55203;DHT22;41077;52.956;6.796;2023-04-03T06:55:29;1.80;99.90
55203;DHT22;41077;52.956;6.796;2023-04-03T06:57:55;1.90;99.90
55203;DHT22;41077;52.956;6.796;2023-04-03T07:00:21;1.90;99.90
55203;DHT22;41077;52.956;6.796;2023-04-03T07:02:46;2.00;99.90
55203;DHT22;41077;52.956;6.796;2023-04-03T07:05:12;2.00;99.90
55203;DHT22;41077;52.956;6.796;2023-04-03T07:07:38;2.10;99.90
55203;DHT22;41077;52.956;6.796;2023-04-03T07:10:05;2.20;99.90
55203;DHT22;41077;52.956;6.796;2023-04-03T07:12:31;2.30;99.90
55203;DHT22;41077;52.956;6.796;2023-04-03T07:14:57;2.40;99.90
55203;DHT22;41077;52.956;6.796;2023-04-03T07:17:22;2.50;99.90
55203;DHT22;41077;52.956;6.796;2023-04-03T07:19:48;2.50;99.90
55203;DHT22;41077;52.956;6.796;2023-04-03T07:22:13;2.60;99.90
55203;DHT22;41077;52.956;6.796;2023-04-03T07:24:39;2.70;99.90
55203;DHT22;41077;52.956;6.796;2023-04-03T07:27:05;2.80;99.90
55203;DHT22;41077;52.956;6.796;2023-04-03T07:29:31;2.80;99.90
55203;DHT22;41077;52.956;6.796;2023-04-03T07:31:56;2.90;99.90
55203;DHT22;41077;52.956;6.796;2023-04-03T07:34:22;2.90;99.90
55203;DHT22;41077;52.956;6.796;2023-04-03T07:36:48;3.00;99.90
55203;DHT22;41077;52.956;6.796;2023-04-03T07:39:13;3.10;99.90
55203;DHT22;41077;52.956;6.796;2023-04-03T07:41:39;3.10;99.90
55203;DHT22;41077;52.956;6.796;2023-04-03T07:44:04;3.20;99.90
55203;DHT22;41077;52.956;6.796;2023-04-03T07:46:31;3.30;99.90
55203;DHT22;41077;52.956;6.796;2023-04-03T07:48:56;3.30;99.90
55203;DHT22;41077;52.956;6.796;2023-04-03T07:51:22;3.40;99.90
55203;DHT22;41077;52.956;6.796;2023-04-03T07:53:48;3.60;99.90
55203;DHT22;41077;52.956;6.796;2023-04-03T07:56:14;3.60;99.90
55203;DHT22;41077;52.956;6.796;2023-04-03T07:58:40;3.70;99.90
55203;DHT22;41077;52.956;6.796;2023-04-03T08:01:05;3.80;99.90
55203;DHT22;41077;52.956;6.796;2023-04-03T08:03:31;3.90;99.90
55203;DHT22;41077;52.956;6.796;2023-04-03T08:06:00;4.00;99.90
55203;DHT22;41077;52.956;6.796;2023-04-03T08:08:26;4.10;99.90
55203;DHT22;41077;52.956;6.796;2023-04-03T08:10:54;4.10;99.90
55203;DHT22;41077;52.956;6.796;2023-04-03T08:13:20;4.20;99.90
55203;DHT22;41077;52.956;6.796;2023-04-03T08:15:46;4.30;99.90
55203;DHT22;41077;52.956;6.796;2023-04-03T08:18:13;4.30;99.90
55203;DHT22;41077;52.956;6.796;2023-04-03T08:20:38;4.40;99.90
55203;DHT22;41077;52.956;6.796;2023-04-03T08:23:06;4.50;99.90
55203;DHT22;41077;52.956;6.796;2023-04-03T08:25:32;4.50;99.90
55203;DHT22;41077;52.956;6.796;2023-04-03T08:27:57;4.60;99.90
55203;DHT22;41077;52.956;6.796;2023-04-03T08:30:23;4.60;99.90
55203;DHT22;41077;52.956;6.796;2023-04-03T08:32:49;4.70;99.90
55203;DHT22;41077;52.956;6.796;2023-04-03T08:35:14;4.80;99.90
55203;DHT22;41077;52.956;6.796;2023-04-03T08:37:40;4.80;99.90
55203;DHT22;41077;52.956;6.796;2023-04-03T08:40:07;4.90;99.90
55203;DHT22;41077;52.956;6.796;2023-04-03T08:48:06;5.10;99.90
55203;DHT22;41077;52.956;6.796;2023-04-03T08:50:36;5.20;99.90
55203;DHT22;41077;52.956;6.796;2023-04-03T08:53:03;5.20;99.90
55203;DHT22;41077;52.956;6.796;2023-04-03T08:55:39;5.30;99.90
55203;DHT22;41077;52.956;6.796;2023-04-03T08:58:06;5.40;99.90
55203;DHT22;41077;52.956;6.796;2023-04-03T09:00:41;5.50;99.90
55203;DHT22;41077;52.956;6.796;2023-04-03T09:03:13;5.70;99.90
55203;DHT22;41077;52.956;6.796;2023-04-03T09:08:27;5.90;99.90
55203;DHT22;41077;52.956;6.796;2023-04-03T09:11:12;5.90;99.90
55203;DHT22;41077;52.956;6.796;2023-04-03T09:13:42;6.00;99.90
55203;DHT22;41077;52.956;6.796;2023-04-03T09:16:14;6.10;99.90
55203;DHT22;41077;52.956;6.796;2023-04-03T09:18:44;6.20;99.90
55203;DHT22;41077;52.956;6.796;2023-04-03T09:21:19;6.20;99.90
55203;DHT22;41077;52.956;6.796;2023-04-03T09:23:47;6.30;99.90
55203;DHT22;41077;52.956;6.796;2023-04-03T09:28:51;6.40;99.90
55203;DHT22;41077;52.956;6.796;2023-04-03T09:33:44;6.50;99.90
55203;DHT22;41077;52.956;6.796;2023-04-03T09:36:10;6.60;99.90
55203;DHT22;41077;52.956;6.796;2023-04-03T09:38:36;6.50;99.90
55203;DHT22;41077;52.956;6.796;2023-04-03T09:41:06;6.60;99.90
55203;DHT22;41077;52.956;6.796;2023-04-03T09:43:33;6.70;99.90
55203;DHT22;41077;52.956;6.796;2023-04-03T09:46:16;6.70;99.90
55203;DHT22;41077;52.956;6.796;2023-04-03T09:51:37;6.90;99.90
55203;DHT22;41077;52.956;6.796;2023-04-03T09:56:50;7.10;99.90
55203;DHT22;41077;52.956;6.796;2023-04-03T09:59:16;7.20;99.90
55203;DHT22;41077;52.956;6.796;2023-04-03T10:01:43;7.30;99.40
55203;DHT22;41077;52.956;6.796;2023-04-03T10:06:36;7.30;99.40
55203;DHT22;41077;52.956;6.796;2023-04-03T10:09:03;7.40;99.90
55203;DHT22;41077;52.956;6.796;2023-04-03T10:11:30;7.50;99.30
55203;DHT22;41077;52.956;6.796;2023-04-03T10:13:56;7.50;98.50
55203;DHT22;41077;52.956;6.796;2023-04-03T10:16:27;7.50;99.50
55203;DHT22;41077;52.956;6.796;2023-04-03T10:31:48;8.00;99.00
55203;DHT22;41077;52.956;6.796;2023-04-03T10:34:30;8.00;96.80
55203;DHT22;41077;52.956;6.796;2023-04-03T10:37:01;7.90;96.20
55203;DHT22;41077;52.956;6.796;2023-04-03T10:49:39;8.30;97.80
55203;DHT22;41077;52.956;6.796;2023-04-03T10:54:41;8.60;95.70
55203;DHT22;41077;52.956;6.796;2023-04-03T10:57:09;8.70;95.00
55203;DHT22;41077;52.956;6.796;2023-04-03T11:02:06;8.80;94.50
55203;DHT22;41077;52.956;6.796;2023-04-03T11:04:34;8.90;93.00
55203;DHT22;41077;52.956;6.796;2023-04-03T11:07:44;8.90;92.90
55203;DHT22;41077;52.956;6.796;2023-04-03T11:09:51;8.80;93.90
55203;DHT22;41077;52.956;6.796;2023-04-03T11:12:25;8.90;94.60
55203;DHT22;41077;52.956;6.796;2023-04-03T11:14:53;9.00;91.70
55203;DHT22;41077;52.956;6.796;2023-04-03T11:22:17;9.30;91.90
55203;DHT22;41077;52.956;6.796;2023-04-03T11:24:50;9.40;90.10
55203;DHT22;41077;52.956;6.796;2023-04-03T11:27:19;9.80;91.40
55203;DHT22;41077;52.956;6.796;2023-04-03T11:29:47;10.10;88.80
55203;DHT22;41077;52.956;6.796;2023-04-03T11:32:24;10.50;90.20
55203;DHT22;41077;52.956;6.796;2023-04-03T11:34:52;10.90;83.90
55203;DHT22;41077;52.956;6.796;2023-04-03T11:37:24;11.20;82.10
55203;DHT22;41077;52.956;6.796;2023-04-03T11:39:58;11.50;81.20
55203;DHT22;41077;52.956;6.796;2023-04-03T11:42:42;11.80;85.10
55203;DHT22;41077;52.956;6.796;2023-04-03T11:53:42;12.90;74.70
55203;DHT22;41077;52.956;6.796;2023-04-03T12:16:05;13.30;63.80
55203;DHT22;41077;52.956;6.796;2023-04-03T12:18:36;13.20;66.40
55203;DHT22;41077;52.956;6.796;2023-04-03T12:21:05;13.30;66.80
55203;DHT22;41077;52.956;6.796;2023-04-03T12:26:00;13.30;61.40
55203;DHT22;41077;52.956;6.796;2023-04-03T12:28:29;13.40;64.30
55203;DHT22;41077;52.956;6.796;2023-04-03T12:30:54;13.60;66.80
55203;DHT22;41077;52.956;6.796;2023-04-03T12:33:27;13.50;62.90
55203;DHT22;41077;52.956;6.796;2023-04-03T12:36:06;13.60;63.20
55203;DHT22;41077;52.956;6.796;2023-04-03T12:48:33;13.30;65.00
55203;DHT22;41077;52.956;6.796;2023-04-03T12:51:02;13.20;64.20
55203;DHT22;41077;52.956;6.796;2023-04-03T12:53:29;12.90;61.60
55203;DHT22;41077;52.956;6.796;2023-04-03T12:58:43;12.70;63.00
55203;DHT22;41077;52.956;6.796;2023-04-03T13:01:10;12.30;64.20
55203;DHT22;41077;52.956;6.796;2023-04-03T13:03:40;12.00;65.00
55203;DHT22;41077;52.956;6.796;2023-04-03T13:06:10;12.00;66.30
55203;DHT22;41077;52.956;6.796;2023-04-03T13:08:38;12.00;65.30
55203;DHT22;41077;52.956;6.796;2023-04-03T13:11:13;11.90;63.40
55203;DHT22;41077;52.956;6.796;2023-04-03T13:13:39;11.90;64.40
55203;DHT22;41077;52.956;6.796;2023-04-03T13:16:10;11.90;64.10
55203;DHT22;41077;52.956;6.796;2023-04-03T13:18:36;12.10;64.20
55203;DHT22;41077;52.956;6.796;2023-04-03T13:21:06;12.20;63.90
55203;DHT22;41077;52.956;6.796;2023-04-03T13:23:33;12.30;63.50
55203;DHT22;41077;52.956;6.796;2023-04-03T13:26:00;12.40;62.00
55203;DHT22;41077;52.956;6.796;2023-04-03T13:28:29;12.60;62.70
55203;DHT22;41077;52.956;6.796;2023-04-03T13:31:07;12.70;64.30
55203;DHT22;41077;52.956;6.796;2023-04-03T13:33:35;12.80;62.00
55203;DHT22;41077;52.956;6.796;2023-04-03T13:36:16;12.70;61.90
55203;DHT22;41077;52.956;6.796;2023-04-03T13:38:42;12.60;63.70
55203;DHT22;41077;52.956;6.796;2023-04-03T13:41:25;12.50;62.40
55203;DHT22;41077;52.956;6.796;2023-04-03T13:43:51;12.30;61.40
55203;DHT22;41077;52.956;6.796;2023-04-03T13:48:44;12.50;60.90
55203;DHT22;41077;52.956;6.796;2023-04-03T13:53:42;12.40;63.60
55203;DHT22;41077;52.956;6.796;2023-04-03T13:56:09;12.60;64.20
55203;DHT22;41077;52.956;6.796;2023-04-03T13:58:39;12.90;61.20
55203;DHT22;41077;52.956;6.796;2023-04-03T14:01:17;13.20;61.90
55203;DHT22;41077;52.956;6.796;2023-04-03T14:03:51;13.00;59.50
55203;DHT22;41077;52.956;6.796;2023-04-03T14:06:17;13.00;61.30
55203;DHT22;41077;52.956;6.796;2023-04-03T14:08:43;12.80;62.80
55203;DHT22;41077;52.956;6.796;2023-04-03T14:11:11;12.80;63.60
55203;DHT22;41077;52.956;6.796;2023-04-03T14:13:38;13.30;64.10
55203;DHT22;41077;52.956;6.796;2023-04-03T14:16:03;13.70;61.30
55203;DHT22;41077;52.956;6.796;2023-04-03T14:18:29;13.90;61.30
55203;DHT22;41077;52.956;6.796;2023-04-03T14:20:55;13.90;57.30
55203;DHT22;41077;52.956;6.796;2023-04-03T14:23:20;14.00;58.70
55203;DHT22;41077;52.956;6.796;2023-04-03T14:25:46;13.80;58.50
55203;DHT22;41077;52.956;6.796;2023-04-03T14:28:16;13.60;59.60
55203;DHT22;41077;52.956;6.796;2023-04-03T14:30:42;13.50;57.90
55203;DHT22;41077;52.956;6.796;2023-04-03T14:33:10;14.00;57.80
55203;DHT22;41077;52.956;6.796;2023-04-03T14:35:36;14.50;57.20
55203;DHT22;41077;52.956;6.796;2023-04-03T14:38:02;14.70;56.50
55203;DHT22;41077;52.956;6.796;2023-04-03T14:40:27;14.70;55.40
55203;DHT22;41077;52.956;6.796;2023-04-03T14:42:53;14.60;55.70
55203;DHT22;41077;52.956;6.796;2023-04-03T14:45:21;14.50;56.60
55203;DHT22;41077;52.956;6.796;2023-04-03T14:47:53;14.40;56.90
55203;DHT22;41077;52.956;6.796;2023-04-03T14:50:21;14.60;55.90
55203;DHT22;41077;52.956;6.796;2023-04-03T14:52:47;14.80;54.60
55203;DHT22;41077;52.956;6.796;2023-04-03T14:55:17;14.90;55.70
55203;DHT22;41077;52.956;6.796;2023-04-03T14:57:43;14.80;53.90
55203;DHT22;41077;52.956;6.796;2023-04-03T15:00:13;15.00;54.00
55203;DHT22;41077;52.956;6.796;2023-04-03T15:02:39;15.20;53.40
55203;DHT22;41077;52.956;6.796;2023-04-03T15:05:06;15.40;54.90
55203;DHT22;41077;52.956;6.796;2023-04-03T15:07:34;15.50;52.70
55203;DHT22;41077;52.956;6.796;2023-04-03T15:10:06;15.40;53.60
55203;DHT22;41077;52.956;6.796;2023-04-03T15:12:38;15.30;52.70
55203;DHT22;41077;52.956;6.796;2023-04-03T15:15:04;15.30;52.80
55203;DHT22;41077;52.956;6.796;2023-04-03T15:17:30;15.30;51.80
55203;DHT22;41077;52.956;6.796;2023-04-03T15:19:56;15.40;52.70
55203;DHT22;41077;52.956;6.796;2023-04-03T15:22:21;15.10;52.50
55203;DHT22;41077;52.956;6.796;2023-04-03T15:24:47;14.60;52.70
55203;DHT22;41077;52.956;6.796;2023-04-03T15:27:13;14.50;54.40
55203;DHT22;41077;52.956;6.796;2023-04-03T15:29:39;14.50;53.30
55203;DHT22;41077;52.956;6.796;2023-04-03T15:32:05;14.30;54.50
55203;DHT22;41077;52.956;6.796;2023-04-03T15:34:31;14.00;53.80
55203;DHT22;41077;52.956;6.796;2023-04-03T15:36:56;14.30;54.60
55203;DHT22;41077;52.956;6.796;2023-04-03T15:39:22;14.50;54.30
55203;DHT22;41077;52.956;6.796;2023-04-03T15:41:48;14.10;54.20
55203;DHT22;41077;52.956;6.796;2023-04-03T15:44:14;13.70;55.50
55203;DHT22;41077;52.956;6.796;2023-04-03T15:46:43;13.40;56.60
55203;DHT22;41077;52.956;6.796;2023-04-03T15:49:08;13.00;56.40
55203;DHT22;41077;52.956;6.796;2023-04-03T15:51:34;12.80;57.10
55203;DHT22;41077;52.956;6.796;2023-04-03T15:55:44;13.30;55.20
55203;DHT22;41077;52.956;6.796;2023-04-03T15:58:10;13.50;57.50
55203;DHT22;41077;52.956;6.796;2023-04-03T16:05:20;14.80;54.90
55203;DHT22;41077;52.956;6.796;2023-04-03T16:07:46;15.50;55.20
55203;DHT22;41077;52.956;6.796;2023-04-03T16:10:14;15.90;53.80
55203;DHT22;41077;52.956;6.796;2023-04-03T16:12:40;16.10;52.50
55203;DHT22;41077;52.956;6.796;2023-04-03T16:15:06;16.20;52.30
55203;DHT22;41077;52.956;6.796;2023-04-03T16:17:33;16.10;52.30
55203;DHT22;41077;52.956;6.796;2023-04-03T16:20:00;16.20;51.80
55203;DHT22;41077;52.956;6.796;2023-04-03T16:22:27;16.60;51.50
55203;DHT22;41077;52.956;6.796;2023-04-03T16:24:53;16.90;52.00
55203;DHT22;41077;52.956;6.796;2023-04-03T16:27:20;17.20;51.10
55203;DHT22;41077;52.956;6.796;2023-04-03T16:29:46;17.40;50.10
55203;DHT22;41077;52.956;6.796;2023-04-03T16:32:13;17.50;49.90
55203;DHT22;41077;52.956;6.796;2023-04-03T16:34:39;17.50;49.10
55203;DHT22;41077;52.956;6.796;2023-04-03T16:37:06;17.50;48.90
55203;DHT22;41077;52.956;6.796;2023-04-03T16:39:34;17.30;48.20
55203;DHT22;41077;52.956;6.796;2023-04-03T16:42:00;17.30;48.20
55203;DHT22;41077;52.956;6.796;2023-04-03T16:44:26;17.30;48.10
55203;DHT22;41077;52.956;6.796;2023-04-03T16:46:52;17.40;47.90
55203;DHT22;41077;52.956;6.796;2023-04-03T16:49:17;17.30;48.10
55203;DHT22;41077;52.956;6.796;2023-04-03T16:51:43;17.20;47.70
55203;DHT22;41077;52.956;6.796;2023-04-03T16:54:09;17.10;48.00
55203;DHT22;41077;52.956;6.796;2023-04-03T16:56:37;17.10;48.00
55203;DHT22;41077;52.956;6.796;2023-04-03T16:59:02;16.90;48.20
55203;DHT22;41077;52.956;6.796;2023-04-03T17:01:28;16.70;48.30
55203;DHT22;41077;52.956;6.796;2023-04-03T17:03:54;16.40;48.80
55203;DHT22;41077;52.956;6.796;2023-04-03T17:06:20;16.10;49.20
55203;DHT22;41077;52.956;6.796;2023-04-03T17:08:49;15.90;49.40
55203;DHT22;41077;52.956;6.796;2023-04-03T17:11:16;15.20;49.90
55203;DHT22;41077;52.956;6.796;2023-04-03T17:13:42;14.40;51.50
55203;DHT22;41077;52.956;6.796;2023-04-03T17:16:11;13.60;52.50
55203;DHT22;41077;52.956;6.796;2023-04-03T17:18:38;13.00;53.90
55203;DHT22;41077;52.956;6.796;2023-04-03T17:21:04;12.60;53.90
55203;DHT22;41077;52.956;6.796;2023-04-03T17:23:31;12.30;54.80
55203;DHT22;41077;52.956;6.796;2023-04-03T17:26:00;12.10;55.90
55203;DHT22;41077;52.956;6.796;2023-04-03T17:28:25;11.70;55.90
55203;DHT22;41077;52.956;6.796;2023-04-03T17:30:58;11.30;56.90
55203;DHT22;41077;52.956;6.796;2023-04-03T17:33:25;10.90;57.30